You are not logged in, Click here to log in
機場資訊:LSZH Welcome to Taiwan Airways 台灣虛擬航空
ICAO: LSZH Country: 瑞士蘇黎世州
Latitude: 47.4582 Longitude: 8.55548
Total Arrivals: 13 Total Departures: 15
Latest Arrival: JP306 (LJLJ-LSZH)ALAN. LIU Latest Departure: LX2150 (LSZH-LEPA)ALAN. LIU
Scenery:
METAR : LSZH 141820Z 30002KT CAVOK 14/12 Q1012 NOSIG

蘇黎世機場ZRH